sensor_id;sensor_type;location;lat;lon;timestamp;temperature;humidity
13229;DHT22;6680;53.220;10.402;2023-12-04T00:01:21;-2.50;99.90
13229;DHT22;6680;53.220;10.402;2023-12-04T00:03:49;-2.50;99.90
13229;DHT22;6680;53.220;10.402;2023-12-04T00:06:16;-2.50;99.90
13229;DHT22;6680;53.220;10.402;2023-12-04T00:08:43;-2.60;99.90
13229;DHT22;6680;53.220;10.402;2023-12-04T00:11:10;-2.60;99.90
13229;DHT22;6680;53.220;10.402;2023-12-04T00:13:37;-2.70;99.90
13229;DHT22;6680;53.220;10.402;2023-12-04T00:16:04;-2.60;99.90
13229;DHT22;6680;53.220;10.402;2023-12-04T00:18:31;-2.60;99.90
13229;DHT22;6680;53.220;10.402;2023-12-04T00:20:59;-2.70;99.90
13229;DHT22;6680;53.220;10.402;2023-12-04T00:23:27;-2.70;99.90
13229;DHT22;6680;53.220;10.402;2023-12-04T00:25:55;-2.70;99.90
13229;DHT22;6680;53.220;10.402;2023-12-04T00:28:22;-2.70;99.90
13229;DHT22;6680;53.220;10.402;2023-12-04T00:30:48;-2.80;99.90
13229;DHT22;6680;53.220;10.402;2023-12-04T00:33:15;-2.80;99.90
13229;DHT22;6680;53.220;10.402;2023-12-04T00:35:42;-2.80;99.90
13229;DHT22;6680;53.220;10.402;2023-12-04T00:38:10;-2.80;99.90
13229;DHT22;6680;53.220;10.402;2023-12-04T00:40:37;-2.80;99.90
13229;DHT22;6680;53.220;10.402;2023-12-04T00:43:04;-2.80;99.90
13229;DHT22;6680;53.220;10.402;2023-12-04T00:45:31;-2.90;99.90
13229;DHT22;6680;53.220;10.402;2023-12-04T00:47:57;-3.00;99.90
13229;DHT22;6680;53.220;10.402;2023-12-04T00:50:24;-3.00;99.90
13229;DHT22;6680;53.220;10.402;2023-12-04T00:52:51;-3.00;99.90
13229;DHT22;6680;53.220;10.402;2023-12-04T00:55:19;-3.00;99.90
13229;DHT22;6680;53.220;10.402;2023-12-04T00:57:46;-3.00;99.90
13229;DHT22;6680;53.220;10.402;2023-12-04T01:00:14;-3.00;99.90
13229;DHT22;6680;53.220;10.402;2023-12-04T01:02:41;-3.00;99.90
13229;DHT22;6680;53.220;10.402;2023-12-04T01:05:09;-3.00;99.90
13229;DHT22;6680;53.220;10.402;2023-12-04T01:07:35;-3.00;99.90
13229;DHT22;6680;53.220;10.402;2023-12-04T01:10:03;-3.10;99.90
13229;DHT22;6680;53.220;10.402;2023-12-04T01:12:32;-3.00;99.90
13229;DHT22;6680;53.220;10.402;2023-12-04T01:14:59;-3.10;99.90
13229;DHT22;6680;53.220;10.402;2023-12-04T01:17:25;-3.10;99.90
13229;DHT22;6680;53.220;10.402;2023-12-04T01:19:52;-3.10;99.90
13229;DHT22;6680;53.220;10.402;2023-12-04T01:22:19;-3.10;99.90
13229;DHT22;6680;53.220;10.402;2023-12-04T01:24:46;-3.10;99.90
13229;DHT22;6680;53.220;10.402;2023-12-04T01:27:13;-3.10;99.90
13229;DHT22;6680;53.220;10.402;2023-12-04T01:29:41;-3.10;99.90
13229;DHT22;6680;53.220;10.402;2023-12-04T01:32:08;-3.20;99.90
13229;DHT22;6680;53.220;10.402;2023-12-04T01:34:34;-3.20;99.90
13229;DHT22;6680;53.220;10.402;2023-12-04T01:37:03;-3.20;99.90
13229;DHT22;6680;53.220;10.402;2023-12-04T01:39:30;-3.10;99.90
13229;DHT22;6680;53.220;10.402;2023-12-04T01:41:57;-3.20;99.90
13229;DHT22;6680;53.220;10.402;2023-12-04T01:44:24;-3.20;99.90
13229;DHT22;6680;53.220;10.402;2023-12-04T01:46:52;-3.20;99.90
13229;DHT22;6680;53.220;10.402;2023-12-04T01:49:19;-3.20;99.90
13229;DHT22;6680;53.220;10.402;2023-12-04T01:51:46;-3.20;99.90
13229;DHT22;6680;53.220;10.402;2023-12-04T01:54:13;-3.30;99.90
13229;DHT22;6680;53.220;10.402;2023-12-04T01:56:41;-3.20;99.90
13229;DHT22;6680;53.220;10.402;2023-12-04T01:59:07;-3.20;99.90
13229;DHT22;6680;53.220;10.402;2023-12-04T02:01:35;-3.20;99.90
13229;DHT22;6680;53.220;10.402;2023-12-04T02:04:04;-3.20;99.90
13229;DHT22;6680;53.220;10.402;2023-12-04T02:06:32;-3.20;99.90
13229;DHT22;6680;53.220;10.402;2023-12-04T02:08:58;-3.10;99.90
13229;DHT22;6680;53.220;10.402;2023-12-04T02:11:25;-3.10;99.90
13229;DHT22;6680;53.220;10.402;2023-12-04T02:13:52;-3.10;99.90
13229;DHT22;6680;53.220;10.402;2023-12-04T02:16:20;-3.10;99.90
13229;DHT22;6680;53.220;10.402;2023-12-04T02:18:50;-3.00;99.90
13229;DHT22;6680;53.220;10.402;2023-12-04T02:21:18;-3.10;99.90
13229;DHT22;6680;53.220;10.402;2023-12-04T02:23:49;-3.10;99.90
13229;DHT22;6680;53.220;10.402;2023-12-04T02:26:18;-3.10;99.90
13229;DHT22;6680;53.220;10.402;2023-12-04T02:28:54;-3.10;99.90
13229;DHT22;6680;53.220;10.402;2023-12-04T02:31:24;-3.10;99.90
13229;DHT22;6680;53.220;10.402;2023-12-04T02:33:52;-3.10;99.90
13229;DHT22;6680;53.220;10.402;2023-12-04T02:36:20;-3.00;99.90
13229;DHT22;6680;53.220;10.402;2023-12-04T02:38:48;-3.10;99.90
13229;DHT22;6680;53.220;10.402;2023-12-04T02:41:15;-3.10;99.90
13229;DHT22;6680;53.220;10.402;2023-12-04T02:43:43;-3.10;99.90
13229;DHT22;6680;53.220;10.402;2023-12-04T02:46:10;-3.00;99.90
13229;DHT22;6680;53.220;10.402;2023-12-04T02:48:37;-3.00;99.90
13229;DHT22;6680;53.220;10.402;2023-12-04T02:51:04;-3.10;99.90
13229;DHT22;6680;53.220;10.402;2023-12-04T02:53:31;-3.00;99.90
13229;DHT22;6680;53.220;10.402;2023-12-04T02:55:59;-3.00;99.90
13229;DHT22;6680;53.220;10.402;2023-12-04T02:58:26;-3.00;99.90
13229;DHT22;6680;53.220;10.402;2023-12-04T03:00:53;-2.90;99.90
13229;DHT22;6680;53.220;10.402;2023-12-04T03:03:20;-2.90;99.90
13229;DHT22;6680;53.220;10.402;2023-12-04T03:05:46;-2.90;99.90
13229;DHT22;6680;53.220;10.402;2023-12-04T03:08:13;-2.90;99.90
13229;DHT22;6680;53.220;10.402;2023-12-04T03:10:40;-2.90;99.90
13229;DHT22;6680;53.220;10.402;2023-12-04T03:13:08;-3.10;99.90
13229;DHT22;6680;53.220;10.402;2023-12-04T03:15:37;-2.90;99.90
13229;DHT22;6680;53.220;10.402;2023-12-04T03:18:04;-2.90;99.90
13229;DHT22;6680;53.220;10.402;2023-12-04T03:20:32;-2.80;99.90
13229;DHT22;6680;53.220;10.402;2023-12-04T03:22:59;-2.90;99.90
13229;DHT22;6680;53.220;10.402;2023-12-04T03:25:26;-2.90;99.90
13229;DHT22;6680;53.220;10.402;2023-12-04T03:27:52;-3.00;99.90
13229;DHT22;6680;53.220;10.402;2023-12-04T03:30:21;-3.00;99.90
13229;DHT22;6680;53.220;10.402;2023-12-04T03:32:47;-3.00;99.90
13229;DHT22;6680;53.220;10.402;2023-12-04T03:35:14;-3.00;99.90
13229;DHT22;6680;53.220;10.402;2023-12-04T03:37:41;-3.00;99.90
13229;DHT22;6680;53.220;10.402;2023-12-04T03:40:08;-2.90;99.90
13229;DHT22;6680;53.220;10.402;2023-12-04T03:42:35;-3.00;99.90
13229;DHT22;6680;53.220;10.402;2023-12-04T03:45:02;-2.90;99.90
13229;DHT22;6680;53.220;10.402;2023-12-04T03:47:31;-2.90;99.90
13229;DHT22;6680;53.220;10.402;2023-12-04T03:49:57;-2.80;99.90
13229;DHT22;6680;53.220;10.402;2023-12-04T03:52:24;-2.80;99.90
13229;DHT22;6680;53.220;10.402;2023-12-04T03:54:51;-2.80;99.90
13229;DHT22;6680;53.220;10.402;2023-12-04T03:57:18;-2.70;99.90
13229;DHT22;6680;53.220;10.402;2023-12-04T03:59:45;-2.70;99.90
13229;DHT22;6680;53.220;10.402;2023-12-04T04:02:12;-2.70;99.90
13229;DHT22;6680;53.220;10.402;2023-12-04T04:04:40;-2.70;99.90
13229;DHT22;6680;53.220;10.402;2023-12-04T04:07:07;-2.70;99.90
13229;DHT22;6680;53.220;10.402;2023-12-04T04:09:33;-1.90;99.90
13229;DHT22;6680;53.220;10.402;2023-12-04T04:12:00;-2.80;99.90
13229;DHT22;6680;53.220;10.402;2023-12-04T04:14:27;-2.80;99.90
13229;DHT22;6680;53.220;10.402;2023-12-04T04:16:54;-2.90;99.90
13229;DHT22;6680;53.220;10.402;2023-12-04T04:19:21;-2.90;99.90
13229;DHT22;6680;53.220;10.402;2023-12-04T04:21:49;-2.90;99.90
13229;DHT22;6680;53.220;10.402;2023-12-04T04:24:16;-2.90;99.90
13229;DHT22;6680;53.220;10.402;2023-12-04T04:26:42;-2.90;99.90
13229;DHT22;6680;53.220;10.402;2023-12-04T04:29:09;-2.90;99.90
13229;DHT22;6680;53.220;10.402;2023-12-04T04:31:36;-2.90;99.90
13229;DHT22;6680;53.220;10.402;2023-12-04T04:34:03;-3.00;99.90
13229;DHT22;6680;53.220;10.402;2023-12-04T04:36:30;-3.00;99.90
13229;DHT22;6680;53.220;10.402;2023-12-04T04:38:58;-3.00;99.90
13229;DHT22;6680;53.220;10.402;2023-12-04T04:41:25;-3.00;99.90
13229;DHT22;6680;53.220;10.402;2023-12-04T04:43:52;-3.00;99.90
13229;DHT22;6680;53.220;10.402;2023-12-04T04:46:19;-3.00;99.90
13229;DHT22;6680;53.220;10.402;2023-12-04T04:51:13;-3.00;99.90
13229;DHT22;6680;53.220;10.402;2023-12-04T04:53:40;-3.00;99.90
13229;DHT22;6680;53.220;10.402;2023-12-04T04:56:09;-3.00;99.90
13229;DHT22;6680;53.220;10.402;2023-12-04T04:58:38;-3.00;99.90
13229;DHT22;6680;53.220;10.402;2023-12-04T05:01:05;-3.00;99.90
13229;DHT22;6680;53.220;10.402;2023-12-04T05:03:32;-3.00;99.90
13229;DHT22;6680;53.220;10.402;2023-12-04T05:05:59;-2.90;99.90
13229;DHT22;6680;53.220;10.402;2023-12-04T05:08:26;-2.90;99.90
13229;DHT22;6680;53.220;10.402;2023-12-04T05:10:52;-2.90;99.90
13229;DHT22;6680;53.220;10.402;2023-12-04T05:13:21;-2.80;99.90
13229;DHT22;6680;53.220;10.402;2023-12-04T05:15:47;-2.80;99.90
13229;DHT22;6680;53.220;10.402;2023-12-04T05:18:14;-2.80;99.90
13229;DHT22;6680;53.220;10.402;2023-12-04T05:20:41;-2.80;99.90
13229;DHT22;6680;53.220;10.402;2023-12-04T05:23:08;-2.80;99.90
13229;DHT22;6680;53.220;10.402;2023-12-04T05:25:35;-2.70;99.90
13229;DHT22;6680;53.220;10.402;2023-12-04T05:28:02;-2.70;99.90
13229;DHT22;6680;53.220;10.402;2023-12-04T05:30:31;-2.60;99.90
13229;DHT22;6680;53.220;10.402;2023-12-04T05:32:57;-2.60;99.90
13229;DHT22;6680;53.220;10.402;2023-12-04T05:35:24;-2.60;99.90
13229;DHT22;6680;53.220;10.402;2023-12-04T05:37:51;-2.50;99.90
13229;DHT22;6680;53.220;10.402;2023-12-04T05:40:18;-2.40;99.90
13229;DHT22;6680;53.220;10.402;2023-12-04T05:42:45;-2.40;99.90
13229;DHT22;6680;53.220;10.402;2023-12-04T05:45:12;-2.40;99.90
13229;DHT22;6680;53.220;10.402;2023-12-04T05:47:40;-2.30;99.90
13229;DHT22;6680;53.220;10.402;2023-12-04T05:50:08;-2.30;99.90
13229;DHT22;6680;53.220;10.402;2023-12-04T05:52:34;-2.30;99.90
13229;DHT22;6680;53.220;10.402;2023-12-04T05:55:01;-2.20;99.90
13229;DHT22;6680;53.220;10.402;2023-12-04T05:57:29;-2.20;99.90
13229;DHT22;6680;53.220;10.402;2023-12-04T05:59:55;-2.20;99.90
13229;DHT22;6680;53.220;10.402;2023-12-04T06:02:22;-2.10;99.90
13229;DHT22;6680;53.220;10.402;2023-12-04T06:04:50;-2.10;99.90
13229;DHT22;6680;53.220;10.402;2023-12-04T06:07:17;-2.10;99.90
13229;DHT22;6680;53.220;10.402;2023-12-04T06:09:44;-2.00;99.90
13229;DHT22;6680;53.220;10.402;2023-12-04T06:12:11;-2.00;99.90
13229;DHT22;6680;53.220;10.402;2023-12-04T06:14:38;-2.00;99.90
13229;DHT22;6680;53.220;10.402;2023-12-04T06:17:06;-2.00;99.90
13229;DHT22;6680;53.220;10.402;2023-12-04T06:19:33;-2.00;99.90
13229;DHT22;6680;53.220;10.402;2023-12-04T06:22:02;-2.00;99.90
13229;DHT22;6680;53.220;10.402;2023-12-04T06:24:30;-2.00;99.90
13229;DHT22;6680;53.220;10.402;2023-12-04T06:26:57;-2.00;99.90
13229;DHT22;6680;53.220;10.402;2023-12-04T06:29:24;-2.00;99.90
13229;DHT22;6680;53.220;10.402;2023-12-04T06:31:52;-2.00;99.90
13229;DHT22;6680;53.220;10.402;2023-12-04T06:34:19;-2.00;99.90
13229;DHT22;6680;53.220;10.402;2023-12-04T06:36:47;-1.90;99.90
13229;DHT22;6680;53.220;10.402;2023-12-04T06:39:16;-1.90;99.90
13229;DHT22;6680;53.220;10.402;2023-12-04T06:41:44;-1.90;99.90
13229;DHT22;6680;53.220;10.402;2023-12-04T06:44:12;-1.90;99.90
13229;DHT22;6680;53.220;10.402;2023-12-04T06:46:41;-1.90;99.90
13229;DHT22;6680;53.220;10.402;2023-12-04T06:49:09;-1.90;99.90
13229;DHT22;6680;53.220;10.402;2023-12-04T06:51:38;-1.90;99.90
13229;DHT22;6680;53.220;10.402;2023-12-04T06:54:05;-1.80;99.90
13229;DHT22;6680;53.220;10.402;2023-12-04T06:56:33;-1.80;99.90
13229;DHT22;6680;53.220;10.402;2023-12-04T06:59:00;-1.70;99.90
13229;DHT22;6680;53.220;10.402;2023-12-04T07:01:26;-1.80;99.90
13229;DHT22;6680;53.220;10.402;2023-12-04T07:03:53;-1.70;99.90
13229;DHT22;6680;53.220;10.402;2023-12-04T07:06:20;-1.70;99.90
13229;DHT22;6680;53.220;10.402;2023-12-04T07:08:47;-1.70;99.90
13229;DHT22;6680;53.220;10.402;2023-12-04T07:11:14;-1.60;99.90
13229;DHT22;6680;53.220;10.402;2023-12-04T07:13:43;-1.60;99.90
13229;DHT22;6680;53.220;10.402;2023-12-04T07:16:10;-1.60;99.90
13229;DHT22;6680;53.220;10.402;2023-12-04T07:18:36;-1.50;99.90
13229;DHT22;6680;53.220;10.402;2023-12-04T07:21:04;-1.60;99.90
13229;DHT22;6680;53.220;10.402;2023-12-04T07:23:31;-1.50;99.90
13229;DHT22;6680;53.220;10.402;2023-12-04T07:25:57;-1.50;99.90
13229;DHT22;6680;53.220;10.402;2023-12-04T07:28:24;-1.50;99.90
13229;DHT22;6680;53.220;10.402;2023-12-04T07:30:54;-1.40;99.90
13229;DHT22;6680;53.220;10.402;2023-12-04T07:33:21;-1.30;99.90
13229;DHT22;6680;53.220;10.402;2023-12-04T07:35:48;-1.40;99.90
13229;DHT22;6680;53.220;10.402;2023-12-04T07:38:14;-1.30;99.90
13229;DHT22;6680;53.220;10.402;2023-12-04T07:40:41;-1.30;99.90
13229;DHT22;6680;53.220;10.402;2023-12-04T07:43:08;-1.30;99.90
13229;DHT22;6680;53.220;10.402;2023-12-04T07:45:35;-1.30;99.90
13229;DHT22;6680;53.220;10.402;2023-12-04T07:48:04;-1.30;99.90
13229;DHT22;6680;53.220;10.402;2023-12-04T07:50:31;-1.30;99.90
13229;DHT22;6680;53.220;10.402;2023-12-04T07:55:25;-1.20;99.90
13229;DHT22;6680;53.220;10.402;2023-12-04T07:57:52;-1.20;99.90
13229;DHT22;6680;53.220;10.402;2023-12-04T08:00:19;-1.20;99.90
13229;DHT22;6680;53.220;10.402;2023-12-04T08:02:48;-1.20;99.90
13229;DHT22;6680;53.220;10.402;2023-12-04T08:05:16;-1.10;99.90
13229;DHT22;6680;53.220;10.402;2023-12-04T08:07:43;-1.20;99.90
13229;DHT22;6680;53.220;10.402;2023-12-04T08:10:10;-1.10;99.90
13229;DHT22;6680;53.220;10.402;2023-12-04T08:12:37;-1.10;99.90
13229;DHT22;6680;53.220;10.402;2023-12-04T08:15:05;-1.20;99.90
13229;DHT22;6680;53.220;10.402;2023-12-04T08:17:32;-1.10;99.90
13229;DHT22;6680;53.220;10.402;2023-12-04T08:19:59;-1.10;99.90
13229;DHT22;6680;53.220;10.402;2023-12-04T08:22:27;-1.20;99.90
13229;DHT22;6680;53.220;10.402;2023-12-04T08:24:54;-1.10;99.90
13229;DHT22;6680;53.220;10.402;2023-12-04T08:27:21;-1.10;99.90
13229;DHT22;6680;53.220;10.402;2023-12-04T08:29:48;-1.10;99.90
13229;DHT22;6680;53.220;10.402;2023-12-04T08:32:15;-1.10;99.90
13229;DHT22;6680;53.220;10.402;2023-12-04T08:34:41;-1.10;99.90
13229;DHT22;6680;53.220;10.402;2023-12-04T08:37:08;-1.00;99.90
13229;DHT22;6680;53.220;10.402;2023-12-04T08:39:36;-1.00;99.90
13229;DHT22;6680;53.220;10.402;2023-12-04T08:42:04;-1.00;99.90
13229;DHT22;6680;53.220;10.402;2023-12-04T08:44:31;-1.00;99.90
13229;DHT22;6680;53.220;10.402;2023-12-04T08:46:58;-0.90;99.90
13229;DHT22;6680;53.220;10.402;2023-12-04T08:49:25;-0.90;99.90
13229;DHT22;6680;53.220;10.402;2023-12-04T08:51:52;-0.90;99.90
13229;DHT22;6680;53.220;10.402;2023-12-04T08:54:19;-0.90;99.90
13229;DHT22;6680;53.220;10.402;2023-12-04T08:56:47;-0.90;99.90
13229;DHT22;6680;53.220;10.402;2023-12-04T09:01:42;-0.90;99.90
13229;DHT22;6680;53.220;10.402;2023-12-04T09:04:09;-0.80;99.90
13229;DHT22;6680;53.220;10.402;2023-12-04T09:06:36;-0.80;99.90
13229;DHT22;6680;53.220;10.402;2023-12-04T09:09:03;-0.80;99.90
13229;DHT22;6680;53.220;10.402;2023-12-04T09:11:30;-0.80;99.90
13229;DHT22;6680;53.220;10.402;2023-12-04T09:13:58;-0.80;99.90
13229;DHT22;6680;53.220;10.402;2023-12-04T09:16:25;-0.80;99.90
13229;DHT22;6680;53.220;10.402;2023-12-04T09:18:52;-0.80;99.90
13229;DHT22;6680;53.220;10.402;2023-12-04T09:21:19;-0.80;99.90
13229;DHT22;6680;53.220;10.402;2023-12-04T09:23:46;-0.70;99.90
13229;DHT22;6680;53.220;10.402;2023-12-04T09:26:15;-0.70;99.90
13229;DHT22;6680;53.220;10.402;2023-12-04T09:28:42;-0.60;99.90
13229;DHT22;6680;53.220;10.402;2023-12-04T09:31:10;-0.60;99.90
13229;DHT22;6680;53.220;10.402;2023-12-04T09:33:37;-0.60;99.90
13229;DHT22;6680;53.220;10.402;2023-12-04T09:36:04;-0.50;99.90
13229;DHT22;6680;53.220;10.402;2023-12-04T09:38:31;-0.40;99.90
13229;DHT22;6680;53.220;10.402;2023-12-04T09:40:59;-0.40;99.90
13229;DHT22;6680;53.220;10.402;2023-12-04T09:43:28;-0.40;99.90
13229;DHT22;6680;53.220;10.402;2023-12-04T09:45:55;-0.20;99.90
13229;DHT22;6680;53.220;10.402;2023-12-04T09:48:24;-0.20;99.90
13229;DHT22;6680;53.220;10.402;2023-12-04T09:50:52;-0.20;99.90
13229;DHT22;6680;53.220;10.402;2023-12-04T09:53:20;-0.30;99.90
13229;DHT22;6680;53.220;10.402;2023-12-04T09:55:48;-0.10;99.90
13229;DHT22;6680;53.220;10.402;2023-12-04T09:58:15;-0.10;99.90
13229;DHT22;6680;53.220;10.402;2023-12-04T10:00:46;-0.10;99.90
13229;DHT22;6680;53.220;10.402;2023-12-04T10:03:13;0.00;99.90
13229;DHT22;6680;53.220;10.402;2023-12-04T10:05:43;0.00;99.90
13229;DHT22;6680;53.220;10.402;2023-12-04T10:08:11;0.00;99.90
13229;DHT22;6680;53.220;10.402;2023-12-04T10:10:38;0.00;99.90
13229;DHT22;6680;53.220;10.402;2023-12-04T10:13:05;0.00;99.90
13229;DHT22;6680;53.220;10.402;2023-12-04T10:15:32;-0.10;99.90
13229;DHT22;6680;53.220;10.402;2023-12-04T10:17:59;-0.10;99.90
13229;DHT22;6680;53.220;10.402;2023-12-04T10:20:26;-0.10;99.90
13229;DHT22;6680;53.220;10.402;2023-12-04T10:22:56;0.00;99.90
13229;DHT22;6680;53.220;10.402;2023-12-04T10:25:24;0.00;99.90
13229;DHT22;6680;53.220;10.402;2023-12-04T10:27:53;0.00;99.90
13229;DHT22;6680;53.220;10.402;2023-12-04T10:30:25;0.10;99.90
13229;DHT22;6680;53.220;10.402;2023-12-04T10:32:55;0.00;99.90
13229;DHT22;6680;53.220;10.402;2023-12-04T10:35:26;0.00;99.90
13229;DHT22;6680;53.220;10.402;2023-12-04T10:37:56;0.10;99.90
13229;DHT22;6680;53.220;10.402;2023-12-04T10:40:23;0.10;99.90
13229;DHT22;6680;53.220;10.402;2023-12-04T10:42:50;0.10;99.90
13229;DHT22;6680;53.220;10.402;2023-12-04T10:45:17;0.20;99.90
13229;DHT22;6680;53.220;10.402;2023-12-04T10:47:48;0.20;99.90
13229;DHT22;6680;53.220;10.402;2023-12-04T10:50:16;0.20;99.90
13229;DHT22;6680;53.220;10.402;2023-12-04T10:52:44;0.20;99.90
13229;DHT22;6680;53.220;10.402;2023-12-04T10:55:14;0.20;99.90
13229;DHT22;6680;53.220;10.402;2023-12-04T10:57:43;0.20;99.90
13229;DHT22;6680;53.220;10.402;2023-12-04T11:00:13;0.20;99.90
13229;DHT22;6680;53.220;10.402;2023-12-04T11:02:43;0.30;99.90
13229;DHT22;6680;53.220;10.402;2023-12-04T11:05:14;0.20;99.90
13229;DHT22;6680;53.220;10.402;2023-12-04T11:07:47;0.30;99.90
13229;DHT22;6680;53.220;10.402;2023-12-04T11:10:17;0.20;99.90
13229;DHT22;6680;53.220;10.402;2023-12-04T11:12:45;0.20;99.90
13229;DHT22;6680;53.220;10.402;2023-12-04T11:15:16;0.30;99.90
13229;DHT22;6680;53.220;10.402;2023-12-04T11:17:48;0.40;99.90
13229;DHT22;6680;53.220;10.402;2023-12-04T11:20:18;0.40;99.90
13229;DHT22;6680;53.220;10.402;2023-12-04T11:22:45;0.50;99.90
13229;DHT22;6680;53.220;10.402;2023-12-04T11:25:15;0.50;99.90
13229;DHT22;6680;53.220;10.402;2023-12-04T11:27:43;0.40;99.90
13229;DHT22;6680;53.220;10.402;2023-12-04T11:30:11;0.40;99.90
13229;DHT22;6680;53.220;10.402;2023-12-04T11:32:44;0.50;99.90
13229;DHT22;6680;53.220;10.402;2023-12-04T11:35:13;0.50;99.90
13229;DHT22;6680;53.220;10.402;2023-12-04T11:37:42;0.60;99.90
13229;DHT22;6680;53.220;10.402;2023-12-04T11:40:11;0.60;99.90
13229;DHT22;6680;53.220;10.402;2023-12-04T11:42:40;0.70;99.90
13229;DHT22;6680;53.220;10.402;2023-12-04T11:45:07;0.70;99.90
13229;DHT22;6680;53.220;10.402;2023-12-04T11:47:51;0.80;99.90
13229;DHT22;6680;53.220;10.402;2023-12-04T11:50:19;0.80;99.90
13229;DHT22;6680;53.220;10.402;2023-12-04T11:52:46;0.80;99.90
13229;DHT22;6680;53.220;10.402;2023-12-04T11:55:16;0.90;99.90
13229;DHT22;6680;53.220;10.402;2023-12-04T11:57:44;1.00;99.90
13229;DHT22;6680;53.220;10.402;2023-12-04T12:00:18;1.00;99.90
13229;DHT22;6680;53.220;10.402;2023-12-04T12:03:01;1.00;99.90
13229;DHT22;6680;53.220;10.402;2023-12-04T12:05:30;1.10;99.90
13229;DHT22;6680;53.220;10.402;2023-12-04T12:08:03;1.10;99.90
13229;DHT22;6680;53.220;10.402;2023-12-04T12:10:30;1.10;99.90
13229;DHT22;6680;53.220;10.402;2023-12-04T12:12:58;1.00;99.90
13229;DHT22;6680;53.220;10.402;2023-12-04T12:15:25;1.00;99.90
13229;DHT22;6680;53.220;10.402;2023-12-04T12:17:52;1.20;99.90
13229;DHT22;6680;53.220;10.402;2023-12-04T12:20:20;1.20;99.90
13229;DHT22;6680;53.220;10.402;2023-12-04T12:22:48;1.20;99.90
13229;DHT22;6680;53.220;10.402;2023-12-04T12:25:15;1.30;99.90
13229;DHT22;6680;53.220;10.402;2023-12-04T12:27:43;1.40;99.90
13229;DHT22;6680;53.220;10.402;2023-12-04T12:30:13;1.40;99.90
13229;DHT22;6680;53.220;10.402;2023-12-04T12:32:39;1.90;99.90
13229;DHT22;6680;53.220;10.402;2023-12-04T12:35:07;1.40;99.90
13229;DHT22;6680;53.220;10.402;2023-12-04T12:37:34;1.40;99.90
13229;DHT22;6680;53.220;10.402;2023-12-04T12:40:03;1.40;99.90
13229;DHT22;6680;53.220;10.402;2023-12-04T12:42:30;1.40;99.90
13229;DHT22;6680;53.220;10.402;2023-12-04T12:45:00;1.50;99.90
13229;DHT22;6680;53.220;10.402;2023-12-04T12:47:29;1.50;99.90
13229;DHT22;6680;53.220;10.402;2023-12-04T12:49:56;1.50;99.90
13229;DHT22;6680;53.220;10.402;2023-12-04T12:52:23;1.50;99.90
13229;DHT22;6680;53.220;10.402;2023-12-04T12:54:49;1.50;99.90
13229;DHT22;6680;53.220;10.402;2023-12-04T12:57:16;1.50;99.90
13229;DHT22;6680;53.220;10.402;2023-12-04T12:59:44;1.40;99.90
13229;DHT22;6680;53.220;10.402;2023-12-04T13:02:11;1.40;99.90
13229;DHT22;6680;53.220;10.402;2023-12-04T13:04:41;1.30;99.90
13229;DHT22;6680;53.220;10.402;2023-12-04T13:07:08;1.30;99.90
13229;DHT22;6680;53.220;10.402;2023-12-04T13:09:35;1.30;99.90
13229;DHT22;6680;53.220;10.402;2023-12-04T13:12:03;1.20;99.90
13229;DHT22;6680;53.220;10.402;2023-12-04T13:14:30;1.20;99.90
13229;DHT22;6680;53.220;10.402;2023-12-04T13:16:57;1.20;99.90
13229;DHT22;6680;53.220;10.402;2023-12-04T13:19:23;1.10;99.90
13229;DHT22;6680;53.220;10.402;2023-12-04T13:21:51;1.10;99.90
13229;DHT22;6680;53.220;10.402;2023-12-04T13:24:18;1.00;99.90
13229;DHT22;6680;53.220;10.402;2023-12-04T13:26:45;1.00;99.90
13229;DHT22;6680;53.220;10.402;2023-12-04T13:29:12;1.00;99.90
13229;DHT22;6680;53.220;10.402;2023-12-04T13:31:41;1.00;99.90
13229;DHT22;6680;53.220;10.402;2023-12-04T13:34:07;0.90;99.90
13229;DHT22;6680;53.220;10.402;2023-12-04T13:36:34;0.90;99.90
13229;DHT22;6680;53.220;10.402;2023-12-04T13:39:04;0.80;99.90
13229;DHT22;6680;53.220;10.402;2023-12-04T13:41:31;0.80;99.90
13229;DHT22;6680;53.220;10.402;2023-12-04T13:44:20;0.70;99.90
13229;DHT22;6680;53.220;10.402;2023-12-04T13:46:47;0.60;99.90
13229;DHT22;6680;53.220;10.402;2023-12-04T13:49:15;0.70;99.90
13229;DHT22;6680;53.220;10.402;2023-12-04T13:51:45;0.60;99.90
13229;DHT22;6680;53.220;10.402;2023-12-04T13:54:15;0.60;99.90
13229;DHT22;6680;53.220;10.402;2023-12-04T13:56:47;0.60;99.90
13229;DHT22;6680;53.220;10.402;2023-12-04T13:59:20;0.60;99.90
13229;DHT22;6680;53.220;10.402;2023-12-04T14:01:47;0.60;99.90
13229;DHT22;6680;53.220;10.402;2023-12-04T14:04:16;0.60;99.90
13229;DHT22;6680;53.220;10.402;2023-12-04T14:06:43;0.60;99.90
13229;DHT22;6680;53.220;10.402;2023-12-04T14:09:10;0.50;99.90
13229;DHT22;6680;53.220;10.402;2023-12-04T14:11:42;0.50;99.90
13229;DHT22;6680;53.220;10.402;2023-12-04T14:14:09;0.50;99.90
13229;DHT22;6680;53.220;10.402;2023-12-04T14:16:38;0.40;99.90
13229;DHT22;6680;53.220;10.402;2023-12-04T14:19:05;0.70;99.90
13229;DHT22;6680;53.220;10.402;2023-12-04T14:21:32;0.30;99.90
13229;DHT22;6680;53.220;10.402;2023-12-04T14:23:59;0.30;99.90
13229;DHT22;6680;53.220;10.402;2023-12-04T14:26:26;0.30;99.90
13229;DHT22;6680;53.220;10.402;2023-12-04T14:28:54;0.50;99.90
13229;DHT22;6680;53.220;10.402;2023-12-04T14:31:22;0.20;99.90
13229;DHT22;6680;53.220;10.402;2023-12-04T14:33:49;0.20;99.90
13229;DHT22;6680;53.220;10.402;2023-12-04T14:36:18;0.70;99.90
13229;DHT22;6680;53.220;10.402;2023-12-04T14:38:45;0.20;99.90
13229;DHT22;6680;53.220;10.402;2023-12-04T14:41:12;0.20;99.90
13229;DHT22;6680;53.220;10.402;2023-12-04T14:43:39;0.20;99.90
13229;DHT22;6680;53.220;10.402;2023-12-04T14:46:07;0.10;99.90
13229;DHT22;6680;53.220;10.402;2023-12-04T14:48:36;0.00;99.90
13229;DHT22;6680;53.220;10.402;2023-12-04T14:51:04;0.10;99.90
13229;DHT22;6680;53.220;10.402;2023-12-04T14:53:31;0.00;99.90
13229;DHT22;6680;53.220;10.402;2023-12-04T14:56:09;0.00;99.90
13229;DHT22;6680;53.220;10.402;2023-12-04T14:58:56;0.00;99.90
13229;DHT22;6680;53.220;10.402;2023-12-04T15:01:47;0.00;99.90
13229;DHT22;6680;53.220;10.402;2023-12-04T15:04:32;0.10;99.90
13229;DHT22;6680;53.220;10.402;2023-12-04T15:07:16;0.10;99.90
13229;DHT22;6680;53.220;10.402;2023-12-04T15:10:11;0.00;99.90
13229;DHT22;6680;53.220;10.402;2023-12-04T15:13:04;0.00;99.90
13229;DHT22;6680;53.220;10.402;2023-12-04T15:15:48;-0.10;99.90
13229;DHT22;6680;53.220;10.402;2023-12-04T15:18:30;-0.10;99.90
13229;DHT22;6680;53.220;10.402;2023-12-04T15:21:04;-0.10;99.90
13229;DHT22;6680;53.220;10.402;2023-12-04T15:23:29;-0.10;99.90
13229;DHT22;6680;53.220;10.402;2023-12-04T15:25:56;-0.10;99.90
13229;DHT22;6680;53.220;10.402;2023-12-04T15:28:22;-0.20;99.90
13229;DHT22;6680;53.220;10.402;2023-12-04T15:30:49;-0.30;99.90
13229;DHT22;6680;53.220;10.402;2023-12-04T15:33:15;-0.30;99.90
13229;DHT22;6680;53.220;10.402;2023-12-04T15:35:43;-0.30;99.90
13229;DHT22;6680;53.220;10.402;2023-12-04T15:40:36;-0.20;99.90
13229;DHT22;6680;53.220;10.402;2023-12-04T15:43:02;-0.20;99.90
13229;DHT22;6680;53.220;10.402;2023-12-04T15:45:29;-0.30;99.90
13229;DHT22;6680;53.220;10.402;2023-12-04T15:47:54;-0.30;99.90
13229;DHT22;6680;53.220;10.402;2023-12-04T15:50:21;-0.30;99.90